Time;durP1;ratioP1;P1;durP2;ratioP2;P2;SDS_P1;SDS_P2;PMS_P1;PMS_P2;Temp;Humidity;BMP_temperature;BMP_pressure;BME280_temperature;BME280_humidity;BME280_pressure;Samples;Min_cycle;Max_cycle;Signal;HPM_P1;HPM_P2
2021/07/07 00:00:10;;;;;;;;;;;;;;;23.05;55.10;95598.16;1014103;29;2434;-76
2021/07/07 00:00:40;;;;;;;;;;;;;;;23.04;55.26;95586.81;1013774;29;2499;-76
2021/07/07 00:01:10;;;;;;;;;;;;;;;23.04;55.91;95591.34;1013517;29;2892;-76
2021/07/07 00:01:41;;;;;;;;;;;;;;;23.04;55.31;95593.97;1013545;29;2817;-76
2021/07/07 00:02:11;;;;;;;;;;;;;;;23.04;55.47;95588.69;1012518;29;2405;-76
2021/07/07 00:02:42;;;;;;;;;;;;;;;23.03;56.00;95595.03;1014313;29;2492;-76
2021/07/07 00:03:12;;;;;;;;;;;;;;;23.05;54.80;95584.97;1013375;29;2468;-78
2021/07/07 00:03:42;;;;;;;;;;;;;;;23.04;54.50;95588.69;1012556;29;2877;-76
2021/07/07 00:04:12;;;;;;;;;;;;;;;23.04;54.67;95578.88;1013103;29;2544;-77
2021/07/07 00:04:43;;;;;;;;;;;;;;;23.06;54.84;95586.53;1012831;29;2695;-75
2021/07/07 00:05:13;;;;;;;;;;;;;;;23.04;55.65;95583.41;1014313;29;2624;-76
2021/07/07 00:05:44;;;;;;;;;;;;;;;23.04;55.60;95576.22;1017051;29;2883;-77
2021/07/07 00:06:14;;;;;;;;;;;;;;;23.06;55.25;95583.91;1011995;29;3025;-76
2021/07/07 00:06:44;;;;;;;;;;;;;;;23.04;55.17;95592.09;1012246;29;2413;-76
2021/07/07 00:07:15;;;;;;;;;;;;;;;23.04;55.70;95583.41;1008858;29;2692;-76
2021/07/07 00:07:45;;;;;;;;;;;;;;;23.04;55.84;95588.69;1009509;29;2874;-76
2021/07/07 00:08:15;;;;;;;;;;;;;;;23.03;55.25;95581.81;1008081;29;2533;-76
2021/07/07 00:08:45;;;;;;;;;;;;;;;23.03;55.95;95584.47;1009050;29;2839;-76
2021/07/07 00:09:16;;;;;;;;;;;;;;;23.03;55.27;95589.75;1013611;29;2492;-77
2021/07/07 00:09:46;;;;;;;;;;;;;;;23.04;55.23;95592.09;1013429;29;2582;-76
2021/07/07 00:10:17;;;;;;;;;;;;;;;23.04;55.88;95591.34;1013092;29;2866;-76
2021/07/07 00:10:47;;;;;;;;;;;;;;;23.04;55.32;95593.97;1014662;29;2432;-78
2021/07/07 00:11:18;;;;;;;;;;;;;;;23.04;55.72;95586.81;1012945;29;2468;-77
2021/07/07 00:11:48;;;;;;;;;;;;;;;23.02;55.35;95591.59;1013090;29;2636;-77
2021/07/07 00:12:18;;;;;;;;;;;;;;;23.01;55.69;95597.19;1012792;29;2822;-77
2021/07/07 00:12:48;;;;;;;;;;;;;;;23.01;55.48;95590.06;1016042;29;2860;-77
2021/07/07 00:13:19;;;;;;;;;;;;;;;23.00;55.76;95595.63;1011930;29;2374;-76
2021/07/07 00:13:49;;;;;;;;;;;;;;;23.01;55.70;95591.91;1009847;29;2769;-76
2021/07/07 00:14:19;;;;;;;;;;;;;;;23.03;55.48;95595.03;1010393;29;2933;-77
2021/07/07 00:14:49;;;;;;;;;;;;;;;23.00;55.70;95595.63;1009906;29;2515;-76
2021/07/07 00:15:20;;;;;;;;;;;;;;;23.01;55.46;95597.19;1009662;29;2571;-78
2021/07/07 00:15:51;;;;;;;;;;;;;;;23.00;55.85;95593.00;1016853;29;2583;-76
2021/07/07 00:16:21;;;;;;;;;;;;;;;23.00;55.47;95587.72;1016858;29;2643;-77
2021/07/07 00:16:51;;;;;;;;;;;;;;;23.01;55.86;95597.19;1013279;29;2841;-77
2021/07/07 00:17:21;;;;;;;;;;;;;;;23.00;55.89;95583.19;1016172;29;2600;-77
2021/07/07 00:17:52;;;;;;;;;;;;;;;23.00;56.06;95588.47;1012077;29;2441;-76
2021/07/07 00:18:22;;;;;;;;;;;;;;;23.01;55.93;95578.69;1012619;29;2944;-77
2021/07/07 00:18:53;;;;;;;;;;;;;;;23.01;55.68;95578.69;1008053;29;2487;-76
2021/07/07 00:19:24;;;;;;;;;;;;;;;23.00;55.86;95574.50;1008353;29;2740;-77
2021/07/07 00:19:54;;;;;;;;;;;;;;;23.00;56.01;95569.97;1013989;29;2437;-77
2021/07/07 00:20:24;;;;;;;;;;;;;;;23.02;55.63;95570.44;1010914;29;2840;-76
2021/07/07 00:20:55;;;;;;;;;;;;;;;23.03;55.72;95558.03;1012594;29;2884;-77
2021/07/07 00:21:25;;;;;;;;;;;;;;;23.04;55.34;95551.69;1011742;29;2611;-76
2021/07/07 00:21:58;;;;;;;;;;;;;;;23.03;55.53;95552.75;1008746;29;2615;-76
2021/07/07 00:22:29;;;;;;;;;;;;;;;23.04;55.36;95539.22;1012607;29;3000;-76
2021/07/07 00:22:59;;;;;;;;;;;;;;;23.04;55.41;95530.53;1012305;29;2856;-75
2021/07/07 00:23:30;;;;;;;;;;;;;;;23.04;55.88;95530.53;1008649;29;2548;-76
2021/07/07 00:24:00;;;;;;;;;;;;;;;23.04;55.68;95527.88;1011926;29;3152;-76
2021/07/07 00:24:30;;;;;;;;;;;;;;;23.03;55.94;95524.44;1012632;29;2926;-77
2021/07/07 00:25:01;;;;;;;;;;;;;;;23.03;56.15;95521.03;1012815;29;3030;-76
2021/07/07 00:25:31;;;;;;;;;;;;;;;23.03;55.91;95524.44;1013260;29;3068;-76
2021/07/07 00:26:01;;;;;;;;;;;;;;;23.04;55.54;95525.25;1013973;29;2546;-76
2021/07/07 00:26:32;;;;;;;;;;;;;;;23.03;55.66;95526.31;1012591;29;2950;-76
2021/07/07 00:27:02;;;;;;;;;;;;;;;23.06;55.32;95531.03;1013179;29;2647;-76
2021/07/07 00:27:33;;;;;;;;;;;;;;;23.07;55.13;95532.56;1012654;29;3039;-76
2021/07/07 00:28:03;;;;;;;;;;;;;;;23.06;55.43;95528.38;1012429;29;2785;-75
2021/07/07 00:28:33;;;;;;;;;;;;;;;23.06;55.22;95531.03;1012363;29;2542;-76
2021/07/07 00:29:04;;;;;;;;;;;;;;;23.04;55.75;95533.16;1012075;29;3157;-76
2021/07/07 00:29:34;;;;;;;;;;;;;;;23.03;55.25;95536.88;1012501;29;2567;-76
2021/07/07 00:30:05;;;;;;;;;;;;;;;23.04;55.20;95546.41;1012355;29;2749;-76
2021/07/07 00:30:35;;;;;;;;;;;;;;;23.04;55.61;95546.41;1012813;29;2619;-77
2021/07/07 00:31:05;;;;;;;;;;;;;;;23.03;55.07;95542.97;1012968;29;2574;-76
2021/07/07 00:31:36;;;;;;;;;;;;;;;23.05;55.31;95545.31;1013132;29;2582;-75
2021/07/07 00:32:06;;;;;;;;;;;;;;;23.04;55.31;95544.50;1012460;29;2570;-76
2021/07/07 00:32:36;;;;;;;;;;;;;;;23.05;55.35;95555.88;1013862;29;2726;-77
2021/07/07 00:33:07;;;;;;;;;;;;;;;23.03;55.52;95550.09;1008964;29;2635;-76
2021/07/07 00:33:37;;;;;;;;;;;;;;;23.03;55.63;95552.75;1007146;29;2648;-76
2021/07/07 00:34:07;;;;;;;;;;;;;;;23.03;55.51;95558.03;1007710;29;2656;-75
2021/07/07 00:34:37;;;;;;;;;;;;;;;23.02;55.75;95564.41;1012815;29;2750;-77
2021/07/07 00:35:08;;;;;;;;;;;;;;;23.02;55.39;95565.16;1013027;29;2630;-76
2021/07/07 00:35:38;;;;;;;;;;;;;;;23.02;55.54;95574.97;1014025;29;2840;-76
2021/07/07 00:36:08;;;;;;;;;;;;;;;23.03;55.75;95573.88;1013803;29;3196;-77
2021/07/07 00:36:39;;;;;;;;;;;;;;;23.02;55.38;95577.63;1012764;29;2682;-76
2021/07/07 00:37:09;;;;;;;;;;;;;;;23.00;55.79;95583.19;1013284;29;2673;-77
2021/07/07 00:37:39;;;;;;;;;;;;;;;22.99;55.97;95583.47;1012668;29;2587;-76
2021/07/07 00:38:12;;;;;;;;;;;;;;;22.99;55.72;95584.28;1011882;29;3126;-76
2021/07/07 00:38:42;;;;;;;;;;;;;;;22.99;55.66;95586.13;1009656;29;2691;-76
2021/07/07 00:39:13;;;;;;;;;;;;;;;22.99;55.93;95583.47;1011592;29;2843;-76
2021/07/07 00:39:43;;;;;;;;;;;;;;;22.99;55.80;95586.91;1008401;29;3088;-77
2021/07/07 00:40:13;;;;;;;;;;;;;;;22.99;56.02;95584.28;1008874;29;2743;-76
2021/07/07 00:40:44;;;;;;;;;;;;;;;23.00;56.19;95587.72;1009521;29;2987;-77
2021/07/07 00:41:14;;;;;;;;;;;;;;;22.98;56.16;95577.41;1008346;29;2670;-76
2021/07/07 00:41:44;;;;;;;;;;;;;;;22.99;55.99;95575.56;1008206;29;2680;-76
2021/07/07 00:42:15;;;;;;;;;;;;;;;22.98;55.69;95571.34;1009004;29;3137;-76
2021/07/07 00:42:45;;;;;;;;;;;;;;;22.97;55.74;95573.22;1011925;29;3068;-77
2021/07/07 00:43:16;;;;;;;;;;;;;;;22.99;55.66;95571.06;1008684;29;2644;-77
2021/07/07 00:43:46;;;;;;;;;;;;;;;22.98;55.55;95566.84;1007869;29;2747;-76
2021/07/07 00:44:16;;;;;;;;;;;;;;;22.98;56.08;95572.13;1008459;29;2612;-76
2021/07/07 00:44:47;;;;;;;;;;;;;;;22.98;55.76;95574.75;1008251;29;2673;-76
2021/07/07 00:45:17;;;;;;;;;;;;;;;22.99;55.27;95573.69;1013769;29;2904;-76
2021/07/07 00:45:47;;;;;;;;;;;;;;;22.99;55.88;95567.63;1012724;29;2784;-76
2021/07/07 00:46:18;;;;;;;;;;;;;;;22.98;55.00;95577.41;1012406;29;2864;-76
2021/07/07 00:46:48;;;;;;;;;;;;;;;22.99;55.40;95571.06;1012595;29;2831;-77
2021/07/07 00:47:18;;;;;;;;;;;;;;;23.00;55.46;95574.50;1013212;29;2669;-77
2021/07/07 00:47:48;;;;;;;;;;;;;;;22.99;55.61;95572.91;1012603;29;2781;-76
2021/07/07 00:48:19;;;;;;;;;;;;;;;23.00;55.68;95579.78;1011740;29;2658;-77
2021/07/07 00:48:49;;;;;;;;;;;;;;;22.99;55.33;95575.56;1012518;29;3063;-78
2021/07/07 00:49:19;;;;;;;;;;;;;;;23.00;55.68;95579.78;1012189;29;2854;-76
2021/07/07 00:49:50;;;;;;;;;;;;;;;23.00;55.58;95583.19;1012604;29;2594;-76
2021/07/07 00:50:20;;;;;;;;;;;;;;;23.00;55.75;95587.72;1014131;29;3176;-77
2021/07/07 00:50:50;;;;;;;;;;;;;;;23.00;55.74;95585.81;1012480;29;2629;-76
2021/07/07 00:51:21;;;;;;;;;;;;;;;23.01;55.51;95586.63;1012089;29;2794;-76
2021/07/07 00:51:51;;;;;;;;;;;;;;;23.01;55.08;95578.69;1016356;29;2710;-75
2021/07/07 00:52:21;;;;;;;;;;;;;;;23.00;55.24;95585.81;1016614;29;3108;-76
2021/07/07 00:52:54;;;;;;;;;;;;;;;23.00;55.43;95593.75;1011540;29;2898;-76
2021/07/07 00:53:25;;;;;;;;;;;;;;;23.02;55.67;95593.50;1010865;29;2627;-76
2021/07/07 00:53:55;;;;;;;;;;;;;;;23.01;55.46;95586.63;1004542;29;3021;-76
2021/07/07 00:54:26;;;;;;;;;;;;;;;23.00;55.51;95590.34;1004095;29;3137;-76
2021/07/07 00:54:56;;;;;;;;;;;;;;;23.00;55.67;95587.72;1007263;29;2650;-76
2021/07/07 00:55:26;;;;;;;;;;;;;;;23.00;55.30;95593.00;1008024;29;2868;-77
2021/07/07 00:55:57;;;;;;;;;;;;;;;23.00;55.25;95585.81;1016709;29;2661;-75
2021/07/07 00:56:27;;;;;;;;;;;;;;;22.99;55.34;95583.47;1013424;29;2571;-76
2021/07/07 00:56:58;;;;;;;;;;;;;;;22.99;55.65;95575.56;1011995;29;2685;-76
2021/07/07 00:57:33;;;;;;;;;;;;;;;22.99;55.30;95583.47;1008679;29;2823;-76
2021/07/07 00:58:04;;;;;;;;;;;;;;;23.00;55.65;95577.13;1008508;29;3191;-76
2021/07/07 00:58:34;;;;;;;;;;;;;;;23.00;55.13;95577.13;1006402;29;3030;-75
2021/07/07 00:59:04;;;;;;;;;;;;;;;22.99;54.94;95576.34;1005903;29;2694;-76
2021/07/07 00:59:34;;;;;;;;;;;;;;;23.00;55.48;95574.50;1002836;29;3033;-75
2021/07/07 01:00:09;;;;;;;;;;;;;;;23.01;55.40;95573.41;1000969;29;2720;-77
2021/07/07 01:00:39;;;;;;;;;;;;;;;23.00;55.73;95571.84;1006066;29;2567;-76
2021/07/07 01:01:09;;;;;;;;;;;;;;;23.01;55.62;95568.13;1008851;29;2613;-76
2021/07/07 01:01:39;;;;;;;;;;;;;;;23.02;55.71;95572.34;1012687;29;3004;-75
2021/07/07 01:02:10;;;;;;;;;;;;;;;23.01;55.45;95562.81;1017099;29;2541;-76
2021/07/07 01:02:41;;;;;;;;;;;;;;;22.99;55.78;95568.41;1017160;29;3013;-76
2021/07/07 01:03:11;;;;;;;;;;;;;;;23.00;55.96;95569.19;1013339;29;3213;-76
2021/07/07 01:03:41;;;;;;;;;;;;;;;23.00;55.43;95563.91;1013704;29;3069;-76
2021/07/07 01:04:12;;;;;;;;;;;;;;;23.01;55.58;95560.19;1013286;29;2594;-75
2021/07/07 01:04:42;;;;;;;;;;;;;;;23.00;55.96;95561.28;1011901;29;2788;-76
2021/07/07 01:05:13;;;;;;;;;;;;;;;22.99;55.85;95559.69;1011773;29;2685;-76
2021/07/07 01:05:43;;;;;;;;;;;;;;;23.00;55.76;95559.38;1014646;29;2722;-77
2021/07/07 01:06:14;;;;;;;;;;;;;;;23.00;55.40;95561.28;1012670;29;3131;-76
2021/07/07 01:06:44;;;;;;;;;;;;;;;23.00;55.61;95563.91;1012248;29;2893;-77
2021/07/07 01:07:14;;;;;;;;;;;;;;;23.00;55.49;95553.34;1012846;29;2686;-76
2021/07/07 01:07:44;;;;;;;;;;;;;;;23.00;55.89;95561.28;1012580;29;2752;-77
2021/07/07 01:08:15;;;;;;;;;;;;;;;22.99;56.12;95549.13;1012722;29;2702;-77
2021/07/07 01:08:45;;;;;;;;;;;;;;;22.99;55.94;95552.56;1012245;29;2646;-75
2021/07/07 01:09:16;;;;;;;;;;;;;;;23.00;56.00;95548.81;1014086;29;2740;-76
2021/07/07 01:09:46;;;;;;;;;;;;;;;22.99;55.55;95557.06;1011909;29;2693;-76
2021/07/07 01:10:16;;;;;;;;;;;;;;;22.99;56.06;95554.41;1012421;29;2613;-76
2021/07/07 01:10:46;;;;;;;;;;;;;;;23.01;55.76;95552.25;1013172;29;2878;-76
2021/07/07 01:11:17;;;;;;;;;;;;;;;23.00;55.30;95545.41;1012180;29;2693;-76
2021/07/07 01:11:47;;;;;;;;;;;;;;;22.99;55.56;95547.25;1016463;29;3124;-75
2021/07/07 01:12:18;;;;;;;;;;;;;;;22.99;55.79;95546.47;1012449;29;2691;-75
2021/07/07 01:12:48;;;;;;;;;;;;;;;22.99;55.79;95552.56;1013400;29;2632;-75
2021/07/07 01:13:18;;;;;;;;;;;;;;;22.98;55.60;95545.69;1013078;29;2677;-75
2021/07/07 01:13:49;;;;;;;;;;;;;;;23.00;55.34;95553.34;1012389;29;3259;-76
2021/07/07 01:14:19;;;;;;;;;;;;;;;23.01;55.71;95546.97;1012895;29;3039;-76
2021/07/07 01:14:50;;;;;;;;;;;;;;;23.00;55.90;95545.41;1013046;29;2654;-76
2021/07/07 01:15:20;;;;;;;;;;;;;;;23.02;55.53;95545.91;1005026;29;2899;-76
2021/07/07 01:15:50;;;;;;;;;;;;;;;23.00;55.75;95543.53;1005392;29;2758;-75
2021/07/07 01:16:20;;;;;;;;;;;;;;;22.99;55.97;95547.25;1001661;29;2946;-77
2021/07/07 01:16:51;;;;;;;;;;;;;;;22.99;55.93;95543.84;1005224;29;2850;-77
2021/07/07 01:17:23;;;;;;;;;;;;;;;22.98;55.59;95550.97;1012909;29;2828;-76
2021/07/07 01:17:54;;;;;;;;;;;;;;;23.00;55.29;95550.69;1012913;29;3007;-76
2021/07/07 01:18:24;;;;;;;;;;;;;;;23.00;55.39;95550.69;1008955;29;2704;-76
2021/07/07 01:18:54;;;;;;;;;;;;;;;22.98;55.54;95545.69;1009317;29;2986;-77
2021/07/07 01:19:25;;;;;;;;;;;;;;;22.99;55.41;95544.63;1008353;29;2720;-76
2021/07/07 01:19:56;;;;;;;;;;;;;;;23.00;55.06;95540.13;1008454;29;3079;-76
2021/07/07 01:20:26;;;;;;;;;;;;;;;23.00;55.13;95545.41;1014034;29;2574;-76
2021/07/07 01:20:56;;;;;;;;;;;;;;;23.01;55.33;95544.31;1012756;29;2784;-76
2021/07/07 01:21:26;;;;;;;;;;;;;;;23.01;55.03;95546.97;1013790;29;2821;-76
2021/07/07 01:21:57;;;;;;;;;;;;;;;23.00;55.29;95545.41;1012513;29;2702;-75
2021/07/07 01:22:30;;;;;;;;;;;;;;;23.00;55.38;95543.53;1013168;29;2656;-76
2021/07/07 01:23:00;;;;;;;;;;;;;;;23.00;55.28;95542.78;1013098;29;2976;-76
2021/07/07 01:23:30;;;;;;;;;;;;;;;23.01;55.10;95536.38;1011976;29;2694;-76
2021/07/07 01:24:01;;;;;;;;;;;;;;;23.00;55.35;95534.84;1012303;29;2587;-76
2021/07/07 01:24:31;;;;;;;;;;;;;;;22.99;55.68;95539.34;1012642;29;3110;-76
2021/07/07 01:25:02;;;;;;;;;;;;;;;23.01;55.42;95541.69;1016523;29;3117;-76
2021/07/07 01:25:32;;;;;;;;;;;;;;;23.03;54.87;95536.88;1018008;29;2606;-76
2021/07/07 01:26:03;;;;;;;;;;;;;;;23.00;55.19;95538.25;1016244;29;3120;-76
2021/07/07 01:26:34;;;;;;;;;;;;;;;23.01;55.27;95533.75;1016771;29;2895;-76
2021/07/07 01:27:04;;;;;;;;;;;;;;;23.01;55.17;95533.75;1014028;29;3112;-76
2021/07/07 01:27:35;;;;;;;;;;;;;;;22.99;55.48;95531.41;1013671;29;3011;-77
2021/07/07 01:28:06;;;;;;;;;;;;;;;22.99;55.41;95535.91;1013087;29;2733;-76
2021/07/07 01:28:37;;;;;;;;;;;;;;;22.99;55.28;95525.31;1013314;29;2606;-76
2021/07/07 01:29:07;;;;;;;;;;;;;;;22.98;55.59;95529.81;1014031;29;2637;-76
2021/07/07 01:29:38;;;;;;;;;;;;;;;22.98;55.73;95531.72;1013848;29;2849;-76
2021/07/07 01:30:09;;;;;;;;;;;;;;;22.97;55.45;95538.84;1013836;29;2577;-76
2021/07/07 01:30:39;;;;;;;;;;;;;;;22.99;55.29;95539.34;1013188;29;2679;-76
2021/07/07 01:31:09;;;;;;;;;;;;;;;22.99;55.42;95535.91;1013138;29;2615;-76
2021/07/07 01:31:43;;;;;;;;;;;;;;;22.98;55.76;95543.03;1013188;29;3034;-76
2021/07/07 01:32:13;;;;;;;;;;;;;;;22.96;55.78;95541.75;1013005;29;2903;-76
2021/07/07 01:32:44;;;;;;;;;;;;;;;22.97;55.60;95543.34;1013868;29;2817;-76
2021/07/07 01:33:14;;;;;;;;;;;;;;;22.95;55.60;95545.50;1012463;29;2610;-75
2021/07/07 01:33:46;;;;;;;;;;;;;;;22.95;55.83;95546.28;1012320;29;3121;-76
2021/07/07 01:34:16;;;;;;;;;;;;;;;22.95;55.47;95548.13;1012930;29;2606;-78
2021/07/07 01:34:46;;;;;;;;;;;;;;;22.95;55.72;95558.72;1012739;29;2679;-76
2021/07/07 01:35:17;;;;;;;;;;;;;;;22.95;55.53;95550.78;1012594;29;2905;-76
2021/07/07 01:35:47;;;;;;;;;;;;;;;22.93;55.71;95553.72;1008556;29;2898;-76
2021/07/07 01:36:17;;;;;;;;;;;;;;;22.95;55.71;95556.06;1005040;29;2645;-76
2021/07/07 01:36:47;;;;;;;;;;;;;;;22.95;55.58;95551.56;1005732;29;2689;-76
2021/07/07 01:37:18;;;;;;;;;;;;;;;22.96;55.33;95554.97;1000794;29;3268;-76
2021/07/07 01:37:48;;;;;;;;;;;;;;;22.94;55.75;95555.28;1004243;29;3042;-77
2021/07/07 01:38:19;;;;;;;;;;;;;;;22.96;55.30;95562.91;1007405;29;2651;-75
2021/07/07 01:38:49;;;;;;;;;;;;;;;22.95;55.64;95558.72;1014792;29;3199;-76
2021/07/07 01:39:19;;;;;;;;;;;;;;;22.96;55.33;95558.41;1019704;29;2563;-76
2021/07/07 01:39:49;;;;;;;;;;;;;;;22.95;55.50;95556.84;1017177;29;2615;-74
2021/07/07 01:40:23;;;;;;;;;;;;;;;22.95;55.47;95564.00;1013483;29;2607;-76
2021/07/07 01:40:57;;;;;;;;;;;;;;;22.94;55.83;95563.22;1007634;29;3202;-76
2021/07/07 01:41:27;;;;;;;;;;;;;;;22.93;55.77;95566.16;1006033;29;2617;-76
2021/07/07 01:41:57;;;;;;;;;;;;;;;22.93;55.88;95566.16;1006329;29;2632;-76
2021/07/07 01:42:28;;;;;;;;;;;;;;;22.92;55.86;95567.22;1009753;29;3063;-76
2021/07/07 01:42:58;;;;;;;;;;;;;;;22.92;56.03;95577.78;1013138;29;2961;-77
2021/07/07 01:43:28;;;;;;;;;;;;;;;22.92;55.73;95578.56;1013230;29;2614;-76
2021/07/07 01:43:59;;;;;;;;;;;;;;;22.93;55.73;95582.00;1014648;29;2892;-75
2021/07/07 01:44:29;;;;;;;;;;;;;;;22.92;55.86;95583.06;1013175;29;2598;-77
2021/07/07 01:45:00;;;;;;;;;;;;;;;22.92;55.77;95586.50;1013790;29;2633;-76
2021/07/07 01:45:30;;;;;;;;;;;;;;;22.91;55.98;95584.16;1014290;29;2766;-76
2021/07/07 01:46:00;;;;;;;;;;;;;;;22.92;55.77;95586.50;1012726;29;2876;-77
2021/07/07 01:46:31;;;;;;;;;;;;;;;22.92;55.82;95589.16;1014517;29;3012;-76
2021/07/07 01:47:03;;;;;;;;;;;;;;;22.92;55.84;95583.88;1013079;29;2660;-75
2021/07/07 01:47:33;;;;;;;;;;;;;;;22.93;55.68;95577.50;1013294;29;2677;-76
2021/07/07 01:48:03;;;;;;;;;;;;;;;22.92;55.74;95572.50;1015582;29;2086;-75
2021/07/07 01:48:34;;;;;;;;;;;;;;;22.92;55.99;95572.50;1013451;29;2684;-76
2021/07/07 01:49:04;;;;;;;;;;;;;;;22.91;56.11;95563.81;1012933;29;2644;-76
2021/07/07 01:49:34;;;;;;;;;;;;;;;22.94;55.44;95559.78;1013623;29;2747;-75
2021/07/07 01:50:05;;;;;;;;;;;;;;;22.93;55.87;95556.38;1012689;29;2676;-76
2021/07/07 01:50:35;;;;;;;;;;;;;;;22.93;55.99;95552.94;1009687;29;2624;-77
2021/07/07 01:51:05;;;;;;;;;;;;;;;22.94;55.81;95554.50;1014362;29;2610;-76
2021/07/07 01:51:36;;;;;;;;;;;;;;;22.93;55.78;95550.28;1015091;29;3043;-77
2021/07/07 01:52:06;;;;;;;;;;;;;;;22.94;55.69;95549.19;1013447;29;2780;-76
2021/07/07 01:52:37;;;;;;;;;;;;;;;22.94;55.89;95550.00;1013442;29;2977;-77
2021/07/07 01:53:07;;;;;;;;;;;;;;;22.94;55.77;95547.34;1012761;29;2661;-76
2021/07/07 01:53:38;;;;;;;;;;;;;;;22.94;55.44;95551.84;1014136;29;2734;-76
2021/07/07 01:54:08;;;;;;;;;;;;;;;22.94;55.77;95557.13;1012172;29;2611;-77
2021/07/07 01:54:38;;;;;;;;;;;;;;;22.93;55.66;95550.28;1011751;29;3024;-77
2021/07/07 01:55:09;;;;;;;;;;;;;;;22.93;55.71;95548.44;1013497;29;2631;-76
2021/07/07 01:55:39;;;;;;;;;;;;;;;22.92;55.60;95552.16;1012785;29;3193;-76
2021/07/07 01:56:10;;;;;;;;;;;;;;;22.94;55.58;95559.78;1013610;29;3081;-76
2021/07/07 01:56:40;;;;;;;;;;;;;;;22.94;54.82;95563.22;1012768;29;3055;-76
2021/07/07 01:57:10;;;;;;;;;;;;;;;22.94;55.17;95559.78;1012745;29;3130;-76
2021/07/07 01:57:44;;;;;;;;;;;;;;;22.94;55.40;95562.41;1012107;29;2996;-75
2021/07/07 01:58:14;;;;;;;;;;;;;;;22.94;55.55;95554.50;1012895;29;2837;-76
2021/07/07 01:58:45;;;;;;;;;;;;;;;22.94;55.16;95559.78;1012557;29;3236;-76
2021/07/07 01:59:15;;;;;;;;;;;;;;;22.94;55.33;95560.56;1013266;29;2627;-75
2021/07/07 01:59:45;;;;;;;;;;;;;;;22.94;55.25;95562.41;1012350;29;3005;-76
2021/07/07 02:00:16;;;;;;;;;;;;;;;22.96;55.18;95568.19;1012695;29;2909;-76
2021/07/07 02:00:46;;;;;;;;;;;;;;;22.96;55.01;95566.34;1012482;29;3059;-76
2021/07/07 02:01:16;;;;;;;;;;;;;;;22.96;55.04;95562.91;1014509;29;2832;-76
2021/07/07 02:01:46;;;;;;;;;;;;;;;22.97;54.49;95564.50;1013955;29;3201;-76
2021/07/07 02:02:17;;;;;;;;;;;;;;;22.96;55.09;95562.91;1014475;29;2591;-77
2021/07/07 02:02:47;;;;;;;;;;;;;;;22.97;55.08;95561.84;1013916;29;2712;-75
2021/07/07 02:03:17;;;;;;;;;;;;;;;22.97;54.44;95556.56;1012284;29;2618;-76
2021/07/07 02:03:48;;;;;;;;;;;;;;;22.98;54.84;95563.44;1012637;29;2749;-77
2021/07/07 02:04:21;;;;;;;;;;;;;;;22.98;54.66;95550.22;1013167;29;2637;-76
2021/07/07 02:04:51;;;;;;;;;;;;;;;22.99;54.64;95546.47;1012522;29;3168;-75
2021/07/07 02:05:26;;;;;;;;;;;;;;;23.02;54.51;95541.38;1013679;29;2631;-76
2021/07/07 02:05:56;;;;;;;;;;;;;;;23.04;54.57;95543.75;1012479;29;2633;-76
2021/07/07 02:06:27;;;;;;;;;;;;;;;23.03;54.45;95535.03;1013374;29;2637;-76
2021/07/07 02:06:58;;;;;;;;;;;;;;;23.05;54.17;95540.00;1009463;29;2893;-76
2021/07/07 02:07:28;;;;;;;;;;;;;;;23.06;54.02;95541.59;1013980;29;2591;-76
2021/07/07 02:07:59;;;;;;;;;;;;;;;23.05;54.46;95546.09;1013214;29;3059;-76
2021/07/07 02:08:29;;;;;;;;;;;;;;;23.04;54.78;95552.44;1012479;29;2742;-76
2021/07/07 02:08:59;;;;;;;;;;;;;;;23.01;54.97;95544.31;1014207;29;2978;-77
2021/07/07 02:09:30;;;;;;;;;;;;;;;23.01;54.75;95554.91;1012958;29;2661;-76
2021/07/07 02:10:00;;;;;;;;;;;;;;;23.01;53.91;95554.91;1013453;29;2646;-77
2021/07/07 02:10:31;;;;;;;;;;;;;;;23.02;54.04;95551.19;1010020;29;2687;-77
2021/07/07 02:11:01;;;;;;;;;;;;;;;23.01;54.29;95552.25;1009888;29;2581;-76
2021/07/07 02:11:32;;;;;;;;;;;;;;;23.00;54.74;95558.63;1008004;29;2891;-77
2021/07/07 02:12:03;;;;;;;;;;;;;;;22.99;54.40;95557.06;1008253;29;2652;-77
2021/07/07 02:12:33;;;;;;;;;;;;;;;22.99;54.43;95557.84;1013026;29;2633;-76
2021/07/07 02:13:04;;;;;;;;;;;;;;;23.01;54.21;95560.19;1012854;29;3022;-76
2021/07/07 02:13:34;;;;;;;;;;;;;;;23.00;54.26;95553.34;1013574;29;2703;-77
2021/07/07 02:14:04;;;;;;;;;;;;;;;23.01;54.34;95557.53;1013038;29;2828;-76
2021/07/07 02:14:35;;;;;;;;;;;;;;;23.00;54.79;95556.75;1013593;29;2739;-76
2021/07/07 02:15:07;;;;;;;;;;;;;;;22.99;54.83;95560.47;1012525;29;2754;-77
2021/07/07 02:15:37;;;;;;;;;;;;;;;23.00;54.53;95561.28;1013928;29;2826;-76
2021/07/07 02:16:07;;;;;;;;;;;;;;;22.99;55.21;95563.13;1012853;29;2730;-77
2021/07/07 02:16:38;;;;;;;;;;;;;;;22.99;54.66;95568.41;1012922;29;2670;-76
2021/07/07 02:17:08;;;;;;;;;;;;;;;22.99;54.87;95564.97;1009299;29;3044;-76
2021/07/07 02:17:38;;;;;;;;;;;;;;;22.99;55.19;95567.63;1013201;29;3060;-76
2021/07/07 02:18:08;;;;;;;;;;;;;;;22.98;55.28;95571.34;1011793;29;2548;-77
2021/07/07 02:18:39;;;;;;;;;;;;;;;22.97;55.31;95572.41;1012853;29;3142;-76
2021/07/07 02:19:09;;;;;;;;;;;;;;;22.97;55.19;95572.41;1012739;29;2850;-75
2021/07/07 02:19:39;;;;;;;;;;;;;;;22.97;54.88;95578.50;1013459;29;2661;-76
2021/07/07 02:20:10;;;;;;;;;;;;;;;22.97;55.13;95583.78;1013212;29;3122;-76
2021/07/07 02:20:41;;;;;;;;;;;;;;;22.99;54.59;95586.13;1013447;29;2895;-76
2021/07/07 02:21:11;;;;;;;;;;;;;;;22.98;54.81;95581.94;1012859;29;3101;-77
2021/07/07 02:21:41;;;;;;;;;;;;;;;22.98;55.24;95581.94;1012759;29;2563;-76
2021/07/07 02:22:12;;;;;;;;;;;;;;;22.97;55.53;95585.63;1013287;29;2622;-77
2021/07/07 02:22:42;;;;;;;;;;;;;;;22.97;54.74;95589.06;1013382;29;3002;-76
2021/07/07 02:23:12;;;;;;;;;;;;;;;22.98;54.94;95579.28;1013403;29;3050;-77
2021/07/07 02:23:43;;;;;;;;;;;;;;;22.98;54.66;95572.13;1013754;29;2572;-76
2021/07/07 02:24:13;;;;;;;;;;;;;;;22.98;54.55;95585.34;1008552;29;2661;-76
2021/07/07 02:24:43;;;;;;;;;;;;;;;22.99;54.66;95570.25;1008528;29;2682;-77
2021/07/07 02:25:14;;;;;;;;;;;;;;;22.99;54.40;95570.25;1009629;29;2895;-76
2021/07/07 02:25:45;;;;;;;;;;;;;;;22.99;54.84;95570.25;1008535;29;2645;-76
2021/07/07 02:26:15;;;;;;;;;;;;;;;22.99;54.62;95567.63;1009270;29;2716;-76
2021/07/07 02:26:45;;;;;;;;;;;;;;;23.00;54.11;95564.69;1012605;29;2623;-77
2021/07/07 02:27:16;;;;;;;;;;;;;;;23.02;54.12;95562.53;1008178;29;2577;-76
2021/07/07 02:27:46;;;;;;;;;;;;;;;23.02;54.24;95559.88;1013982;29;2826;-76
2021/07/07 02:28:17;;;;;;;;;;;;;;;23.01;54.27;95557.53;1013199;29;3036;-77
2021/07/07 02:28:47;;;;;;;;;;;;;;;23.03;54.47;95560.66;1013047;29;2691;-76
2021/07/07 02:29:17;;;;;;;;;;;;;;;23.05;54.17;95561.16;1013900;29;2804;-77
2021/07/07 02:29:47;;;;;;;;;;;;;;;23.05;53.96;95559.31;1012566;29;2682;-75
2021/07/07 02:30:18;;;;;;;;;;;;;;;23.04;54.57;95563.00;1012187;29;2746;-77
2021/07/07 02:30:49;;;;;;;;;;;;;;;23.03;54.60;95558.03;1012774;29;2928;-77
2021/07/07 02:31:19;;;;;;;;;;;;;;;23.04;54.13;95559.59;1013317;29;2643;-76
2021/07/07 02:31:49;;;;;;;;;;;;;;;23.04;54.07;95556.97;1013112;29;3110;-75
2021/07/07 02:32:19;;;;;;;;;;;;;;;23.06;53.56;95560.84;1013253;29;2844;-76
2021/07/07 02:32:50;;;;;;;;;;;;;;;23.05;54.18;95550.59;1013035;29;2658;-76
2021/07/07 02:33:20;;;;;;;;;;;;;;;23.05;53.65;95556.66;1013791;29;2829;-77
2021/07/07 02:33:51;;;;;;;;;;;;;;;23.05;53.97;95554.03;1013868;29;2888;-76
2021/07/07 02:34:21;;;;;;;;;;;;;;;23.06;54.14;95557.47;1013866;29;2579;-76
2021/07/07 02:34:51;;;;;;;;;;;;;;;23.06;53.96;95552.16;1012718;29;2813;-77
2021/07/07 02:35:22;;;;;;;;;;;;;;;23.06;53.53;95560.84;1016754;29;2649;-76
2021/07/07 02:35:53;;;;;;;;;;;;;;;23.06;53.78;95552.94;1012907;29;3016;-77
2021/07/07 02:36:23;;;;;;;;;;;;;;;23.07;54.21;95556.38;1009179;29;2651;-77
2021/07/07 02:36:53;;;;;;;;;;;;;;;23.06;54.13;95552.16;1009687;29;2648;-76
2021/07/07 02:37:24;;;;;;;;;;;;;;;23.05;54.04;95555.88;1009758;29;2597;-77
2021/07/07 02:37:54;;;;;;;;;;;;;;;23.04;54.17;95543.75;1009215;29;2870;-78
2021/07/07 02:38:25;;;;;;;;;;;;;;;23.05;54.40;95550.59;1011922;29;2658;-77
2021/07/07 02:38:55;;;;;;;;;;;;;;;23.05;53.66;95553.22;1010905;29;2830;-77
2021/07/07 02:39:25;;;;;;;;;;;;;;;23.06;53.99;95546.88;1010144;29;3139;-76
2021/07/07 02:39:56;;;;;;;;;;;;;;;23.06;54.86;95552.94;1013520;29;2750;-77
2021/07/07 02:40:27;;;;;;;;;;;;;;;23.05;54.21;95551.38;1013760;29;3036;-77
2021/07/07 02:40:57;;;;;;;;;;;;;;;23.04;54.18;95549.03;1012626;29;2587;-76